| time (UTC) | temp F | wind direction | speed MPH | gust MPH | rain 1hr in | rain 24hr in | rain mn in | humidity % | barometer mb |
| 20260905024510 | 85 | 145 | 1.0 | 3.0 | 0.00 | 0.00 | 0.00 | 61 | 1011.5 |
| 20260905023007 | 85 | 135 | 1.0 | 3.0 | 0.00 | 0.00 | 0.00 | 60 | 1011.4 |
| 20260905021507 | 86 | 146 | 2.0 | 3.0 | 0.00 | 0.00 | 0.00 | 59 | 1011.0 |
| 20260905020012 | 86 | 136 | 2.0 | 4.0 | 0.00 | 0.00 | 0.00 | 58 | 1010.9 |
| 20260905014506 | 87 | 141 | 2.0 | 6.0 | 0.00 | 0.00 | 0.00 | 56 | 1010.8 |
| 20260905013006 | 88 | 132 | 2.0 | 3.0 | 0.00 | 0.00 | 0.00 | 56 | 1010.6 |
| 20260905011511 | 89 | 140 | 2.0 | 4.0 | 0.00 | 0.00 | 0.00 | 54 | 1010.5 |
| 20260905010004 | 90 | 141 | 3.0 | 7.0 | 0.00 | 0.00 | 0.00 | 52 | 1010.4 |
| 20260905004505 | 91 | 140 | 5.0 | 11.0 | 0.00 | 0.00 | 0.00 | 50 | 1010.3 |
| 20260905003006 | 92 | 130 | 6.0 | 12.0 | 0.00 | 0.00 | 0.00 | 49 | 1010.2 |
| 20260905001502 | 93 | 138 | 7.0 | 11.0 | 0.00 | 0.00 | 0.00 | 47 | 1010.1 |
| 20260905000003 | 94 | 121 | 4.0 | 12.0 | 0.00 | 0.00 | 0.00 | 45 | 1010.1 |
| 20260904234507 | 94 | 136 | 7.0 | 11.0 | 0.00 | 0.00 | 0.00 | 46 | 1010.0 |
| 20260904233002 | 95 | 136 | 7.0 | 11.0 | 0.00 | 0.00 | 0.00 | 46 | 1010.0 |
| 20260904231502 | 95 | 139 | 8.0 | 14.0 | 0.00 | 0.00 | 0.00 | 44 | 1010.0 |
| 20260904230001 | 96 | 119 | 8.0 | 12.0 | 0.00 | 0.00 | 0.00 | 45 | 1009.9 |
| 20260904224611 | 95 | 126 | 9.0 | 13.0 | 0.00 | 0.00 | 0.00 | 45 | 1010.0 |
| 20260904223059 | 96 | 139 | 7.0 | 13.0 | 0.00 | 0.00 | 0.00 | 44 | 1010.1 |
| 20260904221557 | 95 | 139 | 8.0 | 16.0 | 0.00 | 0.00 | 0.00 | 44 | 1010.1 |
| 20260904220058 | 95 | 150 | 6.0 | 16.0 | 0.00 | 0.00 | 0.00 | 45 | 1010.2 |
| 20260904214557 | 95 | 141 | 8.0 | 17.0 | 0.00 | 0.00 | 0.00 | 45 | 1010.3 |
| 20260904213057 | 96 | 118 | 8.0 | 13.0 | 0.00 | 0.00 | 0.00 | 44 | 1010.4 |
| 20260904211559 | 98 | 165 | 2.0 | 14.0 | 0.00 | 0.00 | 0.00 | 42 | 1010.5 |
| 20260904210106 | 95 | 154 | 10.0 | 16.0 | 0.00 | 0.00 | 0.00 | 45 | 1010.6 |
| 20260904204551 | 95 | 128 | 12.0 | 17.0 | 0.00 | 0.00 | 0.00 | 45 | 1010.9 |
| 20260904203049 | 95 | 155 | 5.0 | 13.0 | 0.00 | 0.00 | 0.00 | 46 | 1011.0 |
| 20260904201547 | 98 | 132 | 8.0 | 12.0 | 0.00 | 0.00 | 0.00 | 42 | 1011.2 |
| 20260904200046 | 97 | 137 | 9.0 | 14.0 | 0.00 | 0.00 | 0.00 | 43 | 1011.3 |
| 20260904194545 | 96 | 165 | 11.0 | 19.0 | 0.00 | 0.00 | 0.00 | 43 | 1011.6 |
| 20260904193044 | 96 | 173 | 8.0 | 15.0 | 0.00 | 0.00 | 0.00 | 42 | 1011.6 |
| 20260904191539 | 96 | 167 | 8.0 | 16.0 | 0.00 | 0.00 | 0.00 | 44 | 1012.0 |
| 20260904190038 | 95 | 165 | 9.0 | 17.0 | 0.00 | 0.00 | 0.00 | 46 | 1012.0 |
| 20260904184538 | 95 | 160 | 9.0 | 14.0 | 0.00 | 0.00 | 0.00 | 46 | 1012.3 |
| 20260904183034 | 94 | 134 | 9.0 | 16.0 | 0.00 | 0.00 | 0.00 | 48 | 1012.4 |
| 20260904181533 | 94 | 169 | 5.0 | 14.0 | 0.00 | 0.00 | 0.00 | 49 | 1012.7 |
| 20260904180031 | 93 | 179 | 7.0 | 16.0 | 0.00 | 0.00 | 0.00 | 49 | 1012.9 |
| 20260904174529 | 94 | 151 | 5.0 | 10.0 | 0.00 | 0.00 | 0.00 | 51 | 1013.1 |
| 20260904173032 | 93 | 155 | 8.0 | 14.0 | 0.00 | 0.00 | 0.00 | 52 | 1013.3 |
| 20260904171530 | 92 | 202 | 6.0 | 13.0 | 0.00 | 0.00 | 0.00 | 52 | 1013.6 |
| 20260904170023 | 92 | 128 | 9.0 | 14.0 | 0.00 | 0.00 | 0.00 | 54 | 1013.6 |
| 20260904164526 | 90 | 124 | 4.0 | 12.0 | 0.00 | 0.00 | 0.00 | 58 | 1013.8 |
| 20260904163020 | 89 | 200 | 8.0 | 13.0 | 0.00 | 0.00 | 0.00 | 57 | 1013.9 |
| 20260904161517 | 88 | 173 | 4.0 | 10.0 | 0.00 | 0.00 | 0.00 | 63 | 1013.7 |
| 20260904160020 | 88 | 146 | 6.0 | 11.0 | 0.00 | 0.00 | 0.00 | 66 | 1013.7 |
| 20260904154514 | 87 | 219 | 7.0 | 11.0 | 0.00 | 0.00 | 0.00 | 65 | 1013.7 |
| 20260904153012 | 86 | 219 | 5.0 | 13.0 | 0.00 | 0.00 | 0.00 | 70 | 1013.7 |
| 20260904151508 | 85 | 144 | 7.0 | 14.0 | 0.00 | 0.00 | 0.00 | 72 | 1013.8 |
| 20260904150021 | 84 | 176 | 8.0 | 15.0 | 0.00 | 0.00 | 0.00 | 75 | 1013.8 |
| 20260904144504 | 83 | 149 | 8.0 | 15.0 | 0.00 | 0.00 | 0.00 | 78 | 1013.7 |
| 20260904143101 | 82 | 159 | 7.0 | 13.0 | 0.00 | 0.00 | 0.00 | 79 | 1013.7 |
| 20260904141604 | 81 | 159 | 6.0 | 11.0 | 0.00 | 0.00 | 0.00 | 82 | 1013.8 |
| 20260904140105 | 80 | 146 | 7.0 | 13.0 | 0.00 | 0.00 | 0.00 | 83 | 1013.7 |
| 20260904134603 | 80 | 136 | 5.0 | 12.0 | 0.00 | 0.00 | 0.00 | 85 | 1013.6 |
| 20260904133053 | 79 | 183 | 6.0 | 12.0 | 0.00 | 0.00 | 0.00 | 86 | 1013.3 |
| 20260904131547 | 78 | 157 | 6.0 | 11.0 | 0.00 | 0.00 | 0.00 | 87 | 1013.3 |
| 20260904130051 | 78 | 157 | 4.0 | 13.0 | 0.00 | 0.00 | 0.00 | 88 | 1013.2 |
| 20260904124550 | 77 | 157 | 4.0 | 10.0 | 0.00 | 0.00 | 0.00 | 89 | 1013.1 |
| 20260904123041 | 76 | 145 | 4.0 | 10.0 | 0.00 | 0.00 | 0.00 | 90 | 1013.0 |
| 20260904121540 | 75 | 128 | 4.0 | 10.0 | 0.00 | 0.00 | 0.00 | 90 | 1013.0 |
| 20260904120038 | 75 | 136 | 5.0 | 9.0 | 0.00 | 0.00 | 0.00 | 90 | 1012.9 |
| 20260904114538 | 74 | 146 | 3.0 | 7.0 | 0.00 | 0.00 | 0.00 | 89 | 1012.8 |
| 20260904113036 | 74 | 144 | 3.0 | 7.0 | 0.00 | 0.00 | 0.00 | 89 | 1012.6 |
| 20260904111540 | 74 | 142 | 1.0 | 4.0 | 0.00 | 0.00 | 0.00 | 88 | 1012.6 |
| 20260904110033 | 74 | 153 | 3.0 | 5.0 | 0.00 | 0.00 | 0.00 | 87 | 1012.6 |
| 20260904104535 | 74 | 142 | 2.0 | 7.0 | 0.00 | 0.00 | 0.00 | 87 | 1012.4 |
| 20260904103031 | 74 | 150 | 2.0 | 5.0 | 0.00 | 0.00 | 0.00 | 86 | 1012.3 |
| 20260904101530 | 74 | 133 | 2.0 | 7.0 | 0.00 | 0.00 | 0.00 | 85 | 1012.4 |
| 20260904100030 | 74 | 148 | 4.0 | 10.0 | 0.00 | 0.00 | 0.00 | 85 | 1012.2 |
| 20260904094529 | 74 | 145 | 3.0 | 8.0 | 0.00 | 0.00 | 0.00 | 85 | 1012.2 |
| 20260904093029 | 74 | 132 | 3.0 | 9.0 | 0.00 | 0.00 | 0.00 | 85 | 1012.2 |
| 20260904091528 | 74 | 148 | 3.0 | 7.0 | 0.00 | 0.00 | 0.00 | 85 | 1012.2 |
| 20260904090033 | 74 | 145 | 4.0 | 7.0 | 0.00 | 0.00 | 0.00 | 85 | 1012.1 |
| 20260904084526 | 74 | 142 | 2.0 | 4.0 | 0.00 | 0.00 | 0.00 | 84 | 1012.1 |
| 20260904083025 | 74 | 160 | 1.0 | 3.0 | 0.00 | 0.00 | 0.00 | 84 | 1012.1 |
| 20260904081524 | 74 | 160 | 0.0 | 2.0 | 0.00 | 0.00 | 0.00 | 83 | 1012.0 |
| 20260904080023 | 74 | 147 | 2.0 | 4.0 | 0.00 | 0.00 | 0.00 | 82 | 1011.9 |
| 20260904074532 | 75 | 147 | 3.0 | 4.0 | 0.00 | 0.00 | 0.00 | 81 | 1012.0 |
| 20260904073021 | 75 | 158 | 3.0 | 7.0 | 0.00 | 0.00 | 0.00 | 81 | 1012.0 |
| 20260904071520 | 75 | 148 | 3.0 | 5.0 | 0.00 | 0.00 | 0.00 | 80 | 1012.1 |
| 20260904070020 | 75 | 139 | 4.0 | 5.0 | 0.00 | 0.00 | 0.00 | 81 | 1012.1 |
| 20260904064518 | 75 | 148 | 2.0 | 4.0 | 0.00 | 0.00 | 0.00 | 80 | 1012.3 |
| 20260904063016 | 76 | 146 | 0.0 | 3.0 | 0.00 | 0.00 | 0.00 | 79 | 1012.2 |
| 20260904061525 | 76 | 163 | 1.0 | 4.0 | 0.00 | 0.00 | 0.00 | 78 | 1012.3 |
| 20260904060019 | 77 | 158 | 1.0 | 5.0 | 0.00 | 0.00 | 0.00 | 77 | 1012.3 |
| 20260904054515 | 77 | 202 | 3.0 | 5.0 | 0.00 | 0.00 | 0.00 | 77 | 1012.3 |
| 20260904053010 | 77 | 180 | 4.0 | 7.0 | 0.00 | 0.00 | 0.00 | 77 | 1012.1 |
| 20260904051506 | 77 | 148 | 3.0 | 6.0 | 0.00 | 0.00 | 0.00 | 78 | 1011.9 |
| 20260904050004 | 78 | 157 | 3.0 | 6.0 | 0.00 | 0.00 | 0.00 | 77 | 1012.0 |
| 20260904044504 | 78 | 201 | 4.0 | 9.0 | 0.00 | 0.00 | 0.00 | 76 | 1012.0 |
| 20260904043004 | 79 | 169 | 6.0 | 8.0 | 0.00 | 0.00 | 0.00 | 76 | 1012.0 |
| 20260904041503 | 79 | 187 | 4.0 | 8.0 | 0.00 | 0.00 | 0.00 | 77 | 1012.1 |
| 20260904040008 | 79 | 156 | 4.0 | 7.0 | 0.00 | 0.00 | 0.00 | 77 | 1012.1 |
| 20260904034506 | 79 | 183 | 4.0 | 6.0 | 0.00 | 0.00 | 0.00 | 76 | 1011.9 |
| 20260904033002 | 80 | 161 | 4.0 | 8.0 | 0.00 | 0.00 | 0.00 | 75 | 1012.1 |
| 20260904031502 | 80 | 154 | 4.0 | 8.0 | 0.00 | 0.00 | 0.00 | 74 | 1012.1 |
| 20260904030001 | 81 | 150 | 5.0 | 8.0 | 0.00 | 0.00 | 0.00 | 74 | 1011.9 |